Auke Bay, AK

6:12 AM AKDT on May 29, 2015 (GMT -0800)
Auke Bay | | Change Station
CLOSE
Current Station
Personal Weather Station
Location: Juneau, AK
Elevation: 82 ft
Nearby Weather Stations

Elev 82 ft 58.38 °N, 134.66 °W | Updated 6 seconds ago

Partly Cloudy
Partly Cloudy
46.5 °F
Feels Like 46 °F
N
0.0
Wind Variable Wind from NNE
Gusts 0.0 mph

Today
High -- | Low -- °F
--% Chance of Precip.
Yesterday
High -- | Low -- °F
Precip. -- in
4:06 AM 9:46 PM
Waxing Gibbous, 84% visible
Pressure 30.16 in
Visibility 10.0 miles
Clouds Few 17000 ft
Windchill 46 °F
Dew Point 45 °F
Humidity 93%
Rainfall 0.00 in
Snow Depth Not available.
UV 0 out of 12
Pollen Not available.
Air Quality Not available.
Flu Activity Local Activity
METAR PAJN 291353Z 00000KT 10SM FEW170 10/07 A3016 RMK AO2 SLP212 T01000067

More Conditions Fewer Conditions

Pressure 30.16 in
Visibility 10.0 miles
Clouds Few 17000 ft
Windchill 46 °F
Dew Point 45 °F
Humidity 93%
Rainfall 0.00 in
Snow Depth Not available.
UV 0 out of 12
Pollen Not available.
Air Quality Not available.
Flu Activity Local Activity
METAR PAJN 291353Z 00000KT 10SM FEW170 10/07 A3016 RMK AO2 SLP212 T01000067

More Conditions Fewer Conditions

10-Day Weather Forecast

Almanac

Astronomy

May. 29, 2015 Rise Set
Actual Time
Civil Twilight
Nautical Twilight
Astronomical Twilight
Moon
Length of Visible Light
Length of Day
Tomorrow will be .
, % of the Moon is Illuminated

Today's Extremes

State Highs State Lows

Community

WunderPhotos

Upload Photos

1,825,275 photos uploaded!

WunderBlogs® & News

Nearby

Air Quality

  Air Quality AQ Index Pollutant
Not available.

Snow Depth

Station Depth Elevation

Earthquake Activity

City Distance Mag. Time & Date
Minimum magnitude displayed is 2.5.

Coastal Water Temperatures

Place Temperature

Stations

Nearby Weather Stations

Station Location Temp. Windchill Dew Point Humidity Wind Precip. Elev Updated Type